EZY624J EGSS-EGPH
Flight info
| Callsign | EZY624J |
|---|---|
| Flight time | N/A |
| Altitude | 32000 |
| Route | UTAVA Q75 BUZAD T420 TNT UN57 POL UN601 RIBEL DCT INPIP |
| Aircraft | A320/M-SDE3FGHIRWY/LB1 |
Departure
| Time | 2026-05-01 09:00 |
|---|---|
| Airport | London Stansted Airport (EGSS) |
Arrival
| Time | N/A |
|---|---|
| Airport | Edinburgh Airport (EGPH) |
| Time | Latitude | Longitude | Altitude | Speed | Heading |
|---|---|---|---|---|---|
| 2026-05-01 08:24 | 51.89241 | 0.25963 | 349 ft | 0 kts | 43° |
| 2026-05-01 08:32 | 51.89240 | 0.25963 | 349 ft | 0 kts | 43° |
| 2026-05-01 08:41 | 51.89240 | 0.25962 | 349 ft | 0 kts | 43° |
| 2026-05-01 08:49 | 51.89225 | 0.25939 | 357 ft | 4 kts | 43° |
| 2026-05-01 08:49 | 51.89209 | 0.25917 | 351 ft | 4 kts | 14° |
| 2026-05-01 08:49 | 51.89189 | 0.25925 | 353 ft | 3 kts | 313° |
| 2026-05-01 08:49 | 51.89179 | 0.25944 | 350 ft | 0 kts | 313° |
| 2026-05-01 08:52 | 51.89186 | 0.25932 | 356 ft | 4 kts | 313° |
| 2026-05-01 08:52 | 51.89211 | 0.25888 | 353 ft | 7 kts | 313° |
| 2026-05-01 08:52 | 51.89250 | 0.25821 | 356 ft | 8 kts | 313° |
| 2026-05-01 08:53 | 51.89302 | 0.25732 | 351 ft | 12 kts | 313° |
| 2026-05-01 08:53 | 51.89362 | 0.25608 | 351 ft | 16 kts | 291° |
| 2026-05-01 08:53 | 51.89304 | 0.25469 | 357 ft | 16 kts | 223° |
| 2026-05-01 08:53 | 51.89211 | 0.25329 | 352 ft | 19 kts | 221° |
| 2026-05-01 08:54 | 51.89113 | 0.25183 | 354 ft | 19 kts | 223° |
| 2026-05-01 08:54 | 51.89014 | 0.25034 | 354 ft | 19 kts | 223° |
| 2026-05-01 08:54 | 51.88912 | 0.24881 | 353 ft | 22 kts | 223° |
| 2026-05-01 08:54 | 51.88794 | 0.24705 | 351 ft | 23 kts | 223° |
| 2026-05-01 08:55 | 51.88675 | 0.24525 | 354 ft | 23 kts | 223° |
| 2026-05-01 08:55 | 51.88561 | 0.24352 | 351 ft | 23 kts | 222° |
| 2026-05-01 08:55 | 51.88476 | 0.24227 | 353 ft | 26 kts | 223° |
| 2026-05-01 08:55 | 51.88339 | 0.24022 | 357 ft | 27 kts | 223° |
| 2026-05-01 08:56 | 51.88204 | 0.23817 | 354 ft | 26 kts | 223° |
| 2026-05-01 08:56 | 51.88176 | 0.23631 | 353 ft | 17 kts | 307° |
| 2026-05-01 08:56 | 51.88140 | 0.23423 | 354 ft | 20 kts | 221° |
| 2026-05-01 08:56 | 51.88066 | 0.23316 | 351 ft | 22 kts | 223° |
| 2026-05-01 08:57 | 51.87953 | 0.23145 | 357 ft | 23 kts | 223° |
| 2026-05-01 08:57 | 51.87824 | 0.22949 | 351 ft | 27 kts | 223° |
| 2026-05-01 08:57 | 51.87695 | 0.22759 | 351 ft | 25 kts | 221° |
| 2026-05-01 08:57 | 51.87564 | 0.22559 | 357 ft | 26 kts | 223° |
| 2026-05-01 08:58 | 51.87452 | 0.22392 | 336 ft | 19 kts | 223° |
| 2026-05-01 08:58 | 51.87400 | 0.22234 | 337 ft | 16 kts | 275° |
| 2026-05-01 08:58 | 51.87452 | 0.22117 | 334 ft | 13 kts | 313° |
| 2026-05-01 08:58 | 51.87499 | 0.22035 | 335 ft | 8 kts | 315° |
| 2026-05-01 08:59 | 51.87546 | 0.22048 | 335 ft | 3 kts | 41° |
| 2026-05-01 08:59 | 51.87560 | 0.22068 | 336 ft | 11 kts | 42° |
| 2026-05-01 08:59 | 51.87766 | 0.22380 | 349 ft | 76 kts | 43° |
| 2026-05-01 08:59 | 51.88303 | 0.23186 | 339 ft | 134 kts | 43° |
| 2026-05-01 09:00 | 51.89078 | 0.24355 | 625 ft | 154 kts | 46° |
| 2026-05-01 09:00 | 51.89842 | 0.25517 | 1415 ft | 150 kts | 47° |
| 2026-05-01 09:00 | 51.90635 | 0.26719 | 1918 ft | 166 kts | 47° |
| 2026-05-01 09:00 | 51.91531 | 0.28082 | 2265 ft | 187 kts | 47° |
| 2026-05-01 09:01 | 51.92613 | 0.29499 | 2604 ft | 214 kts | 27° |
| 2026-05-01 09:01 | 51.94156 | 0.29719 | 2924 ft | 240 kts | 343° |
| 2026-05-01 09:01 | 51.95571 | 0.28164 | 3363 ft | 261 kts | 305° |
| 2026-05-01 09:01 | 51.96555 | 0.25601 | 4113 ft | 270 kts | 293° |
| 2026-05-01 09:02 | 51.97153 | 0.22748 | 5080 ft | 270 kts | 278° |
| 2026-05-01 09:02 | 51.97475 | 0.19758 | 6111 ft | 271 kts | 277° |
| 2026-05-01 09:02 | 51.97806 | 0.16728 | 7069 ft | 273 kts | 277° |
| 2026-05-01 09:02 | 51.98144 | 0.13665 | 7910 ft | 278 kts | 277° |
| 2026-05-01 09:03 | 51.98488 | 0.10559 | 8735 ft | 284 kts | 277° |
| 2026-05-01 09:03 | 51.98836 | 0.07342 | 9581 ft | 289 kts | 274° |
| 2026-05-01 09:03 | 51.98834 | 0.04116 | 10348 ft | 291 kts | 260° |
| 2026-05-01 09:03 | 51.98569 | 0.00736 | 10685 ft | 313 kts | 259° |
| 2026-05-01 09:04 | 51.98285 | -0.02877 | 11095 ft | 330 kts | 259° |
| 2026-05-01 09:04 | 51.97997 | -0.06622 | 11792 ft | 336 kts | 259° |
| 2026-05-01 09:04 | 51.97709 | -0.10400 | 12547 ft | 340 kts | 259° |
| 2026-05-01 09:04 | 51.97417 | -0.14252 | 13318 ft | 344 kts | 259° |
| 2026-05-01 09:05 | 51.97129 | -0.18063 | 14046 ft | 348 kts | 259° |
| 2026-05-01 09:05 | 51.96831 | -0.21984 | 14697 ft | 351 kts | 259° |
| 2026-05-01 09:05 | 51.96528 | -0.25938 | 15352 ft | 354 kts | 259° |
| 2026-05-01 09:05 | 51.96218 | -0.29948 | 16007 ft | 357 kts | 258° |
| 2026-05-01 09:06 | 51.95905 | -0.33956 | 16649 ft | 361 kts | 258° |
| 2026-05-01 09:06 | 51.95589 | -0.37979 | 17291 ft | 364 kts | 258° |
| 2026-05-01 09:06 | 51.95267 | -0.42077 | 17920 ft | 368 kts | 258° |
| 2026-05-01 09:06 | 51.94997 | -0.46231 | 18524 ft | 374 kts | 265° |
| 2026-05-01 09:07 | 51.95275 | -0.50481 | 19050 ft | 384 kts | 280° |
| 2026-05-01 09:07 | 51.96236 | -0.54532 | 19557 ft | 394 kts | 296° |
| 2026-05-01 09:07 | 51.97892 | -0.58178 | 20072 ft | 403 kts | 312° |
| 2026-05-01 09:07 | 52.00113 | -0.61003 | 20603 ft | 409 kts | 327° |
| 2026-05-01 09:08 | 52.02533 | -0.63363 | 21131 ft | 412 kts | 327° |
| 2026-05-01 09:08 | 52.05000 | -0.65768 | 21658 ft | 415 kts | 327° |
| 2026-05-01 09:08 | 52.07476 | -0.68187 | 22166 ft | 417 kts | 327° |
| 2026-05-01 09:08 | 52.09985 | -0.70651 | 22671 ft | 420 kts | 327° |
| 2026-05-01 09:09 | 52.12500 | -0.73128 | 23176 ft | 423 kts | 327° |
| 2026-05-01 09:09 | 52.15036 | -0.75632 | 23671 ft | 426 kts | 327° |
| 2026-05-01 09:09 | 52.17545 | -0.78113 | 24089 ft | 429 kts | 327° |
| 2026-05-01 09:09 | 52.20111 | -0.80654 | 24496 ft | 431 kts | 327° |
| 2026-05-01 09:10 | 52.22686 | -0.83205 | 24896 ft | 434 kts | 327° |
| 2026-05-01 09:10 | 52.25285 | -0.85782 | 25295 ft | 436 kts | 327° |
| 2026-05-01 09:10 | 52.27882 | -0.88359 | 25693 ft | 438 kts | 327° |
| 2026-05-01 09:10 | 52.30496 | -0.90957 | 26089 ft | 441 kts | 327° |
| 2026-05-01 09:11 | 52.33091 | -0.93536 | 26482 ft | 443 kts | 327° |
| 2026-05-01 09:11 | 52.35742 | -0.96171 | 26870 ft | 445 kts | 327° |
| 2026-05-01 09:11 | 52.38392 | -0.98813 | 27247 ft | 447 kts | 327° |
| 2026-05-01 09:11 | 52.41072 | -1.01491 | 27624 ft | 450 kts | 327° |
| 2026-05-01 09:12 | 52.43751 | -1.04174 | 27992 ft | 452 kts | 327° |
| 2026-05-01 09:12 | 52.46409 | -1.06846 | 28365 ft | 454 kts | 327° |
| 2026-05-01 09:12 | 52.49110 | -1.09565 | 28714 ft | 456 kts | 327° |
| 2026-05-01 09:12 | 52.51831 | -1.12308 | 29069 ft | 459 kts | 327° |
| 2026-05-01 09:13 | 52.54560 | -1.15059 | 29428 ft | 461 kts | 327° |
| 2026-05-01 09:13 | 52.57303 | -1.17824 | 29776 ft | 463 kts | 327° |
| 2026-05-01 09:13 | 52.60061 | -1.20603 | 30124 ft | 465 kts | 327° |
| 2026-05-01 09:13 | 52.62796 | -1.23360 | 30427 ft | 467 kts | 327° |
| 2026-05-01 09:14 | 52.65581 | -1.26171 | 30708 ft | 468 kts | 327° |
| 2026-05-01 09:14 | 52.68365 | -1.28990 | 31005 ft | 470 kts | 327° |
| 2026-05-01 09:14 | 52.71159 | -1.31822 | 31288 ft | 471 kts | 327° |
| 2026-05-01 09:14 | 52.73948 | -1.34660 | 31612 ft | 472 kts | 326° |
| 2026-05-01 09:15 | 52.76737 | -1.37509 | 32011 ft | 470 kts | 326° |
| 2026-05-01 09:15 | 52.79512 | -1.40349 | 32170 ft | 467 kts | 326° |
| 2026-05-01 09:15 | 52.82241 | -1.43139 | 32193 ft | 452 kts | 326° |
| 2026-05-01 09:15 | 52.84898 | -1.45860 | 32193 ft | 445 kts | 326° |
| 2026-05-01 09:16 | 52.90104 | -1.51206 | 32193 ft | 441 kts | 326° |
| 2026-05-01 09:17 | 52.97921 | -1.59256 | 32189 ft | 439 kts | 326° |
| 2026-05-01 09:17 | 53.05745 | -1.67083 | 32183 ft | 440 kts | 334° |
| 2026-05-01 09:18 | 53.14340 | -1.72515 | 32171 ft | 440 kts | 338° |
| 2026-05-01 09:19 | 53.22922 | -1.77835 | 32170 ft | 440 kts | 338° |
| 2026-05-01 09:20 | 53.31540 | -1.83214 | 32163 ft | 439 kts | 338° |
| 2026-05-01 09:21 | 53.42994 | -1.90426 | 32160 ft | 439 kts | 338° |
| 2026-05-01 09:21 | 53.51496 | -1.95785 | 32166 ft | 439 kts | 338° |
| 2026-05-01 09:22 | 53.62954 | -2.03041 | 32164 ft | 439 kts | 338° |
| 2026-05-01 09:23 | 53.71508 | -2.08500 | 32171 ft | 439 kts | 338° |
| 2026-05-01 09:24 | 53.80068 | -2.14109 | 32170 ft | 439 kts | 336° |
| 2026-05-01 09:25 | 53.91392 | -2.21952 | 32169 ft | 440 kts | 336° |
| 2026-05-01 09:26 | 53.99919 | -2.27808 | 32159 ft | 439 kts | 336° |
| 2026-05-01 09:26 | 54.08400 | -2.33636 | 32154 ft | 439 kts | 336° |
| 2026-05-01 09:27 | 54.16903 | -2.39534 | 32165 ft | 439 kts | 336° |
| 2026-05-01 09:28 | 54.22538 | -2.43462 | 32162 ft | 439 kts | 336° |
| 2026-05-01 09:28 | 54.28203 | -2.47419 | 32160 ft | 439 kts | 336° |
| 2026-05-01 09:29 | 54.36701 | -2.53359 | 32148 ft | 438 kts | 336° |
| 2026-05-01 09:30 | 54.45130 | -2.59290 | 32143 ft | 438 kts | 336° |
| 2026-05-01 09:30 | 54.53611 | -2.65272 | 32149 ft | 438 kts | 335° |
| 2026-05-01 09:31 | 54.56393 | -2.67241 | 31743 ft | 438 kts | 335° |
| 2026-05-01 09:31 | 54.59219 | -2.69250 | 31173 ft | 437 kts | 335° |
| 2026-05-01 09:31 | 54.64797 | -2.73223 | 30174 ft | 432 kts | 335° |
| 2026-05-01 09:32 | 54.67577 | -2.75200 | 29650 ft | 428 kts | 335° |
| 2026-05-01 09:32 | 54.73037 | -2.79095 | 28711 ft | 419 kts | 335° |
| 2026-05-01 09:32 | 54.75717 | -2.81007 | 28251 ft | 415 kts | 335° |
| 2026-05-01 09:33 | 54.78376 | -2.82907 | 27794 ft | 411 kts | 335° |
| 2026-05-01 09:33 | 54.81002 | -2.84793 | 27341 ft | 407 kts | 335° |
| 2026-05-01 09:33 | 54.86169 | -2.88530 | 26415 ft | 401 kts | 335° |
| 2026-05-01 09:34 | 54.88745 | -2.90392 | 25938 ft | 399 kts | 335° |
| 2026-05-01 09:34 | 54.91323 | -2.92253 | 25350 ft | 401 kts | 335° |
| 2026-05-01 09:34 | 54.96478 | -2.95989 | 24233 ft | 402 kts | 335° |
| 2026-05-01 09:35 | 54.99072 | -2.97875 | 23656 ft | 403 kts | 335° |
| 2026-05-01 09:35 | 55.03316 | -3.00949 | 23142 ft | 390 kts | 335° |
| 2026-05-01 09:35 | 55.05842 | -3.02781 | 22348 ft | 396 kts | 334° |
| 2026-05-01 09:36 | 55.09225 | -3.05248 | 21609 ft | 396 kts | 334° |
| 2026-05-01 09:36 | 55.10915 | -3.06484 | 21285 ft | 395 kts | 334° |
| 2026-05-01 09:36 | 55.13446 | -3.08336 | 20821 ft | 393 kts | 334° |
| 2026-05-01 09:36 | 55.15976 | -3.10186 | 20367 ft | 391 kts | 334° |
| 2026-05-01 09:37 | 55.18484 | -3.12025 | 19929 ft | 389 kts | 334° |
| 2026-05-01 09:37 | 55.23461 | -3.15683 | 19095 ft | 385 kts | 334° |
| 2026-05-01 09:37 | 55.25904 | -3.17484 | 18697 ft | 384 kts | 334° |
| 2026-05-01 09:38 | 55.30987 | -3.20014 | 18144 ft | 374 kts | 356° |
| 2026-05-01 09:38 | 55.33560 | -3.19845 | 17942 ft | 367 kts | 4° |
| 2026-05-01 09:38 | 55.36069 | -3.19463 | 17622 ft | 363 kts | 4° |
| 2026-05-01 09:39 | 55.41081 | -3.18689 | 16933 ft | 358 kts | 4° |
| 2026-05-01 09:39 | 55.43563 | -3.18298 | 16587 ft | 356 kts | 4° |
| 2026-05-01 09:39 | 55.46030 | -3.17902 | 16252 ft | 354 kts | 4° |
| 2026-05-01 09:40 | 55.48473 | -3.17514 | 15931 ft | 351 kts | 4° |
| 2026-05-01 09:40 | 55.53292 | -3.16755 | 15310 ft | 347 kts | 4° |
| 2026-05-01 09:40 | 55.55698 | -3.16380 | 15011 ft | 344 kts | 4° |
| 2026-05-01 09:41 | 55.58082 | -3.16012 | 14700 ft | 343 kts | 4° |
| 2026-05-01 09:41 | 55.62784 | -3.15283 | 14096 ft | 338 kts | 4° |
| 2026-05-01 09:41 | 55.65125 | -3.14909 | 13782 ft | 336 kts | 4° |
| 2026-05-01 09:42 | 55.67453 | -3.14533 | 13514 ft | 333 kts | 4° |
| 2026-05-01 09:42 | 55.69738 | -3.14166 | 13383 ft | 324 kts | 4° |
| 2026-05-01 09:42 | 55.74103 | -3.13476 | 13079 ft | 310 kts | 5° |
| 2026-05-01 09:43 | 55.78121 | -3.11008 | 12508 ft | 305 kts | 28° |
| 2026-05-01 09:43 | 55.80014 | -3.09309 | 12228 ft | 304 kts | 27° |
| 2026-05-01 09:43 | 55.81894 | -3.07620 | 11936 ft | 302 kts | 27° |
| 2026-05-01 09:44 | 55.85718 | -3.04607 | 11361 ft | 299 kts | 12° |
| 2026-05-01 09:44 | 55.87755 | -3.03934 | 11070 ft | 298 kts | 9° |
| 2026-05-01 09:44 | 55.89769 | -3.03293 | 10792 ft | 296 kts | 9° |
| 2026-05-01 09:45 | 55.91807 | -3.02641 | 10338 ft | 293 kts | 9° |
| 2026-05-01 09:45 | 55.95786 | -3.01991 | 9278 ft | 285 kts | 351° |
| 2026-05-01 09:45 | 55.97748 | -3.02451 | 8697 ft | 283 kts | 350° |
| 2026-05-01 09:46 | 55.99706 | -3.02905 | 8133 ft | 281 kts | 350° |
| 2026-05-01 09:46 | 56.01560 | -3.03823 | 7455 ft | 276 kts | 326° |
| 2026-05-01 09:46 | 56.02943 | -3.06097 | 6757 ft | 269 kts | 297° |
| 2026-05-01 09:46 | 56.03553 | -3.09175 | 6043 ft | 261 kts | 271° |
| 2026-05-01 09:47 | 56.03330 | -3.12291 | 5354 ft | 254 kts | 245° |
| 2026-05-01 09:47 | 56.02497 | -3.15025 | 4672 ft | 246 kts | 236° |
| 2026-05-01 09:47 | 56.01633 | -3.17577 | 4020 ft | 233 kts | 237° |
| 2026-05-01 09:47 | 56.00816 | -3.20000 | 3420 ft | 223 kts | 237° |
| 2026-05-01 09:48 | 56.00042 | -3.22303 | 3052 ft | 207 kts | 237° |
| 2026-05-01 09:48 | 55.99566 | -3.23715 | 2989 ft | 200 kts | 237° |